Time;durP1;ratioP1;P1;durP2;ratioP2;P2;SDS_P1;SDS_P2;PMS_P1;PMS_P2;Temp;Humidity;BMP_temperature;BMP_pressure;BME280_temperature;BME280_humidity;BME280_pressure;Samples;Min_cycle;Max_cycle;Signal;HPM_P1;HPM_P2
2022/08/13 00:00:26;;;;;;;0.80;0.70;;;;;;;;;;5053943;28;20127;-51
2022/08/13 00:02:52;;;;;;;4.10;0.80;;;;;;;;;;5045590;28;20678;-51
2022/08/13 00:05:23;;;;;;;0.73;0.60;;;;;;;;;;5064245;28;20028;-49
2022/08/13 00:07:48;;;;;;;1.08;0.80;;;;;;;;;;5061673;28;20062;-48
2022/08/13 00:10:46;;;;;;;2.03;0.82;;;;;;;;;;5062817;28;20056;-52
2022/08/13 00:13:06;;;;;;;1.40;0.70;;;;;;;;;;5058011;28;20072;-50
2022/08/13 00:15:40;;;;;;;1.67;0.70;;;;;;;;;;5053198;28;20095;-53
2022/08/13 00:18:08;;;;;;;2.63;1.40;;;;;;;;;;5043863;28;20377;-50
2022/08/13 00:20:40;;;;;;;1.73;0.90;;;;;;;;;;5041913;28;20033;-50
2022/08/13 00:23:11;;;;;;;1.77;0.68;;;;;;;;;;5061781;28;20505;-48
2022/08/13 00:25:37;;;;;;;1.15;0.80;;;;;;;;;;5061327;28;20060;-51
2022/08/13 00:28:04;;;;;;;0.93;0.82;;;;;;;;;;5060050;28;20092;-50
2022/08/13 00:30:33;;;;;;;1.60;0.57;;;;;;;;;;5059293;28;20052;-53
2022/08/13 00:33:12;;;;;;;4.15;0.80;;;;;;;;;;5059998;28;20049;-53
2022/08/13 00:35:41;;;;;;;1.70;0.70;;;;;;;;;;5042832;28;20029;-53
2022/08/13 00:38:12;;;;;;;1.98;0.80;;;;;;;;;;5044018;28;20041;-52
2022/08/13 00:40:41;;;;;;;1.02;0.80;;;;;;;;;;5056816;28;20052;-47
2022/08/13 00:43:07;;;;;;;1.90;0.80;;;;;;;;;;5048693;28;20080;-48
2022/08/13 00:45:32;;;;;;;1.65;0.93;;;;;;;;;;5039844;28;20154;-50
2022/08/13 00:50:43;;;;;;;1.95;0.98;;;;;;;;;;5058454;28;20107;-49
2022/08/13 00:53:17;;;;;;;2.70;1.10;;;;;;;;;;5041759;28;20147;-51
2022/08/13 00:55:55;;;;;;;1.95;0.90;;;;;;;;;;5057023;28;20067;-53
2022/08/13 00:58:22;;;;;;;2.92;0.98;;;;;;;;;;5045839;28;20131;-52
2022/08/13 01:00:56;;;;;;;4.40;0.98;;;;;;;;;;5044217;28;20045;-59
2022/08/13 01:03:22;;;;;;;2.13;0.80;;;;;;;;;;5039364;28;20041;-53
2022/08/13 01:05:48;;;;;;;2.42;1.33;;;;;;;;;;5046597;28;20136;-53
2022/08/13 01:08:19;;;;;;;2.55;1.10;;;;;;;;;;5060235;28;20119;-54
2022/08/13 01:10:50;;;;;;;3.95;1.02;;;;;;;;;;5061561;28;20045;-53
2022/08/13 01:13:18;;;;;;;1.35;1.02;;;;;;;;;;5057805;28;20048;-50
2022/08/13 01:15:44;;;;;;;1.10;0.90;;;;;;;;;;5059155;28;20067;-52
2022/08/13 01:18:13;;;;;;;1.48;1.00;;;;;;;;;;5053002;28;20049;-54
2022/08/13 01:20:45;;;;;;;1.95;1.05;;;;;;;;;;5043134;28;20101;-51
2022/08/13 01:23:11;;;;;;;2.20;0.90;;;;;;;;;;5039861;28;20028;-54
2022/08/13 01:25:37;;;;;;;1.67;1.00;;;;;;;;;;5035757;28;20055;-53
2022/08/13 01:28:03;;;;;;;1.10;1.00;;;;;;;;;;5038946;28;20049;-53
2022/08/13 01:30:30;;;;;;;1.30;1.20;;;;;;;;;;5043509;28;20057;-54
2022/08/13 01:32:56;;;;;;;1.80;1.10;;;;;;;;;;5037017;28;20102;-52
2022/08/13 01:35:23;;;;;;;3.63;1.10;;;;;;;;;;5037587;28;20041;-52
2022/08/13 01:37:53;;;;;;;1.45;1.00;;;;;;;;;;5035990;28;20051;-54
2022/08/13 01:40:19;;;;;;;4.80;0.90;;;;;;;;;;5053765;28;20521;-54
2022/08/13 01:42:46;;;;;;;3.58;1.40;;;;;;;;;;5059265;28;20076;-53
2022/08/13 01:45:13;;;;;;;1.95;1.08;;;;;;;;;;5061771;28;20551;-52
2022/08/13 01:50:31;;;;;;;3.53;1.00;;;;;;;;;;5062828;28;20097;-54
2022/08/13 01:53:02;;;;;;;2.22;1.05;;;;;;;;;;5058170;28;20044;-50
2022/08/13 01:55:39;;;;;;;2.25;1.00;;;;;;;;;;5047224;28;21028;-53
2022/08/13 01:58:19;;;;;;;4.50;1.50;;;;;;;;;;5053906;28;20045;-53
2022/08/13 02:00:47;;;;;;;2.58;1.05;;;;;;;;;;5046363;28;20091;-52
2022/08/13 02:03:16;;;;;;;2.88;0.98;;;;;;;;;;5043183;28;20079;-52
2022/08/13 02:05:42;;;;;;;1.10;0.95;;;;;;;;;;5057443;28;20046;-50
2022/08/13 02:08:12;;;;;;;3.97;1.00;;;;;;;;;;5057703;28;20434;-54
2022/08/13 02:10:42;;;;;;;2.63;1.10;;;;;;;;;;5058125;28;20045;-50
2022/08/13 02:13:13;;;;;;;1.63;1.10;;;;;;;;;;5061003;28;20532;-51
2022/08/13 02:15:40;;;;;;;4.97;1.23;;;;;;;;;;5057049;28;20045;-54
2022/08/13 02:18:07;;;;;;;2.45;0.95;;;;;;;;;;5057685;28;20781;-53
2022/08/13 02:20:35;;;;;;;1.10;1.00;;;;;;;;;;5057493;28;20165;-54
2022/08/13 02:23:06;;;;;;;4.65;1.00;;;;;;;;;;5059911;28;20384;-55
2022/08/13 02:25:33;;;;;;;1.73;0.90;;;;;;;;;;5041598;28;20059;-53
2022/08/13 02:27:59;;;;;;;1.08;0.90;;;;;;;;;;5039673;28;20123;-53
2022/08/13 02:30:27;;;;;;;3.45;0.90;;;;;;;;;;5039298;28;20135;-55
2022/08/13 02:32:53;;;;;;;2.38;0.85;;;;;;;;;;5034358;28;20095;-54
2022/08/13 02:35:19;;;;;;;1.27;0.88;;;;;;;;;;5033934;28;20506;-56
2022/08/13 02:37:47;;;;;;;1.15;1.05;;;;;;;;;;5034933;28;20055;-50
2022/08/13 02:42:59;;;;;;;3.42;0.95;;;;;;;;;;5047704;28;20060;-52
2022/08/13 02:45:25;;;;;;;1.10;1.00;;;;;;;;;;5059190;28;20128;-52
2022/08/13 02:47:51;;;;;;;1.10;1.00;;;;;;;;;;5059431;28;20113;-53
2022/08/13 02:50:20;;;;;;;2.05;1.00;;;;;;;;;;5061740;28;20441;-52
2022/08/13 02:52:47;;;;;;;3.20;0.93;;;;;;;;;;5059546;28;20048;-55
2022/08/13 02:55:13;;;;;;;1.73;1.13;;;;;;;;;;5059585;28;20064;-57
2022/08/13 02:57:38;;;;;;;1.00;0.88;;;;;;;;;;5058960;28;20055;-52
2022/08/13 03:00:05;;;;;;;2.28;0.93;;;;;;;;;;5060433;28;20044;-48
2022/08/13 03:02:31;;;;;;;1.42;0.90;;;;;;;;;;5059769;28;20028;-52
2022/08/13 03:04:59;;;;;;;4.32;1.10;;;;;;;;;;5060076;28;20056;-50
2022/08/13 03:07:26;;;;;;;0.93;0.90;;;;;;;;;;5058135;28;20059;-55
2022/08/13 03:09:51;;;;;;;2.03;1.00;;;;;;;;;;5061459;28;20044;-52
2022/08/13 03:12:20;;;;;;;1.13;1.00;;;;;;;;;;5059118;28;20447;-52
2022/08/13 03:14:46;;;;;;;1.65;1.10;;;;;;;;;;5058835;28;20501;-55
2022/08/13 03:17:11;;;;;;;3.20;1.10;;;;;;;;;;5060532;28;20586;-54
2022/08/13 03:19:37;;;;;;;1.67;1.20;;;;;;;;;;5059008;28;20132;-54
2022/08/13 03:22:02;;;;;;;1.60;1.10;;;;;;;;;;5061184;28;20049;-51
2022/08/13 03:24:28;;;;;;;2.05;1.00;;;;;;;;;;5064978;28;20048;-53
2022/08/13 03:26:53;;;;;;;6.88;1.20;;;;;;;;;;5060975;28;21309;-54
2022/08/13 03:29:19;;;;;;;1.40;1.10;;;;;;;;;;5063731;28;20029;-56
2022/08/13 03:31:46;;;;;;;1.40;1.02;;;;;;;;;;5062450;28;20037;-51
2022/08/13 03:34:12;;;;;;;1.35;1.02;;;;;;;;;;5062184;28;20522;-57
2022/08/13 03:36:37;;;;;;;1.73;1.08;;;;;;;;;;5062871;28;20049;-55
2022/08/13 03:39:03;;;;;;;1.33;0.93;;;;;;;;;;5064824;28;20075;-52
2022/08/13 03:41:29;;;;;;;1.50;1.00;;;;;;;;;;5063261;28;20032;-55
2022/08/13 03:43:55;;;;;;;1.05;1.05;;;;;;;;;;5063563;28;20463;-52
2022/08/13 03:46:23;;;;;;;2.50;1.10;;;;;;;;;;5064109;28;20080;-54
2022/08/13 03:48:50;;;;;;;2.30;1.20;;;;;;;;;;5059640;28;20059;-55
2022/08/13 03:51:20;;;;;;;2.17;1.00;;;;;;;;;;5061997;28;20201;-55
2022/08/13 03:53:46;;;;;;;1.38;0.90;;;;;;;;;;5061737;28;20052;-56
2022/08/13 03:56:13;;;;;;;0.85;0.80;;;;;;;;;;5062703;28;20328;-58
2022/08/13 03:58:40;;;;;;;3.25;1.20;;;;;;;;;;5061945;28;20036;-55
2022/08/13 04:01:06;;;;;;;1.05;1.00;;;;;;;;;;5062359;28;20044;-54
2022/08/13 04:03:37;;;;;;;1.90;1.00;;;;;;;;;;5059986;28;20045;-53
2022/08/13 04:06:09;;;;;;;1.20;1.00;;;;;;;;;;5061644;28;20193;-50
2022/08/13 04:08:36;;;;;;;3.33;1.27;;;;;;;;;;5061417;28;20036;-52
2022/08/13 04:11:13;;;;;;;0.90;0.90;;;;;;;;;;5061537;28;20028;-54
2022/08/13 04:13:39;;;;;;;2.10;0.93;;;;;;;;;;5061447;28;20036;-52
2022/08/13 04:16:13;;;;;;;3.13;1.30;;;;;;;;;;5063464;28;20082;-54
2022/08/13 04:18:40;;;;;;;1.90;0.90;;;;;;;;;;5057307;28;20074;-51
2022/08/13 04:21:09;;;;;;;0.90;0.90;;;;;;;;;;5061562;28;20556;-53
2022/08/13 04:23:39;;;;;;;1.88;1.10;;;;;;;;;;5060162;28;20038;-51
2022/08/13 04:26:06;;;;;;;4.32;1.25;;;;;;;;;;5063628;28;20120;-52
2022/08/13 04:28:32;;;;;;;1.65;1.10;;;;;;;;;;5063023;28;20425;-54
2022/08/13 04:30:58;;;;;;;1.48;0.98;;;;;;;;;;5060051;28;20036;-51
2022/08/13 04:33:25;;;;;;;2.95;1.10;;;;;;;;;;5061404;28;20490;-53
2022/08/13 04:35:50;;;;;;;3.33;1.27;;;;;;;;;;5060394;28;20037;-54
2022/08/13 04:38:16;;;;;;;3.92;1.20;;;;;;;;;;5060703;28;20202;-51
2022/08/13 04:40:44;;;;;;;3.10;1.20;;;;;;;;;;5061201;28;20047;-53
2022/08/13 04:43:10;;;;;;;1.75;0.98;;;;;;;;;;5061366;28;20037;-51
2022/08/13 04:45:37;;;;;;;4.22;1.15;;;;;;;;;;5062135;28;20139;-50
2022/08/13 04:48:07;;;;;;;2.70;1.13;;;;;;;;;;5060408;28;20488;-56
2022/08/13 04:50:34;;;;;;;3.28;1.30;;;;;;;;;;5062320;28;20032;-58
2022/08/13 04:53:01;;;;;;;1.85;1.20;;;;;;;;;;5059041;28;20403;-54
2022/08/13 04:55:27;;;;;;;2.40;1.10;;;;;;;;;;5059680;28;20647;-58
2022/08/13 04:57:53;;;;;;;5.20;1.13;;;;;;;;;;5060387;28;20055;-52
2022/08/13 05:00:20;;;;;;;1.65;1.25;;;;;;;;;;5061401;28;20037;-51
2022/08/13 05:02:46;;;;;;;1.17;1.05;;;;;;;;;;5060020;28;20056;-55
2022/08/13 05:05:13;;;;;;;2.28;1.13;;;;;;;;;;5061117;28;20106;-53
2022/08/13 05:07:39;;;;;;;1.40;1.00;;;;;;;;;;5059398;28;20051;-59
2022/08/13 05:10:06;;;;;;;1.58;1.10;;;;;;;;;;5061010;28;20040;-59
2022/08/13 05:12:36;;;;;;;3.38;1.05;;;;;;;;;;5062199;28;20333;-59
2022/08/13 05:15:03;;;;;;;3.22;1.17;;;;;;;;;;5062343;28;20332;-59
2022/08/13 05:17:30;;;;;;;4.25;1.30;;;;;;;;;;5059739;28;20698;-57
2022/08/13 05:19:56;;;;;;;4.30;1.20;;;;;;;;;;5060477;28;20063;-59
2022/08/13 05:22:23;;;;;;;2.90;1.30;;;;;;;;;;5060319;28;20083;-59
2022/08/13 05:24:50;;;;;;;1.45;1.13;;;;;;;;;;5058711;28;20568;-59
2022/08/13 05:27:16;;;;;;;3.75;1.30;;;;;;;;;;5061633;28;20344;-60
2022/08/13 05:29:41;;;;;;;2.78;1.15;;;;;;;;;;5061264;28;20032;-60
2022/08/13 05:32:10;;;;;;;1.50;1.20;;;;;;;;;;5059626;28;20032;-59
2022/08/13 05:34:37;;;;;;;1.75;1.10;;;;;;;;;;5061308;28;20052;-59
2022/08/13 05:37:03;;;;;;;2.78;1.13;;;;;;;;;;5058410;28;20143;-58
2022/08/13 05:39:33;;;;;;;1.38;1.25;;;;;;;;;;5059210;28;20054;-59
2022/08/13 05:41:58;;;;;;;3.72;1.33;;;;;;;;;;5059578;28;20125;-59
2022/08/13 05:44:24;;;;;;;1.10;1.00;;;;;;;;;;5062809;28;20690;-59
2022/08/13 05:46:50;;;;;;;1.40;1.00;;;;;;;;;;5059015;28;20905;-59
2022/08/13 05:49:16;;;;;;;2.42;1.40;;;;;;;;;;5061945;28;20044;-58
2022/08/13 05:51:45;;;;;;;2.80;1.20;;;;;;;;;;5060822;28;20044;-59
2022/08/13 05:54:11;;;;;;;1.88;1.20;;;;;;;;;;5059629;28;20056;-59
2022/08/13 05:56:38;;;;;;;1.35;1.17;;;;;;;;;;5058417;28;20089;-59
2022/08/13 05:59:04;;;;;;;18.45;2.58;;;;;;;;;;5060190;28;20973;-59
2022/08/13 06:04:19;;;;;;;4.10;1.60;;;;;;;;;;5059217;28;21288;-59
2022/08/13 06:06:45;;;;;;;4.22;1.80;;;;;;;;;;5059164;28;20044;-59
2022/08/13 06:09:10;;;;;;;2.00;1.50;;;;;;;;;;5060269;28;20466;-59
2022/08/13 06:11:42;;;;;;;12.68;1.75;;;;;;;;;;5059189;28;20033;-59
2022/08/13 06:14:08;;;;;;;4.80;1.52;;;;;;;;;;5062501;28;20031;-59
2022/08/13 06:16:36;;;;;;;5.15;1.60;;;;;;;;;;5058790;28;20040;-60
2022/08/13 06:19:03;;;;;;;6.38;1.75;;;;;;;;;;5060980;28;20707;-59
2022/08/13 06:21:28;;;;;;;8.35;2.50;;;;;;;;;;5057777;28;20048;-59
2022/08/13 06:23:54;;;;;;;4.68;1.65;;;;;;;;;;5059279;28;20063;-60
2022/08/13 06:26:21;;;;;;;9.77;2.40;;;;;;;;;;5060269;28;20692;-57
2022/08/13 06:28:52;;;;;;;11.23;2.10;;;;;;;;;;5063502;28;20403;-59
2022/08/13 06:31:25;;;;;;;5.13;1.60;;;;;;;;;;5061884;28;20060;-59
2022/08/13 06:33:52;;;;;;;5.45;1.90;;;;;;;;;;5060852;28;20072;-59
2022/08/13 06:36:18;;;;;;;3.22;1.73;;;;;;;;;;5063362;28;20490;-60
2022/08/13 06:38:48;;;;;;;6.43;2.53;;;;;;;;;;5058790;28;20045;-59
2022/08/13 06:41:15;;;;;;;4.40;2.17;;;;;;;;;;5058622;28;20044;-59
2022/08/13 06:43:46;;;;;;;7.10;1.90;;;;;;;;;;5035903;28;20607;-59
2022/08/13 06:46:12;;;;;;;6.30;1.80;;;;;;;;;;5032011;28;20399;-60
2022/08/13 06:48:39;;;;;;;16.42;3.50;;;;;;;;;;5038733;28;20048;-59
2022/08/13 06:51:07;;;;;;;7.45;2.53;;;;;;;;;;5041076;28;20048;-59
2022/08/13 06:53:35;;;;;;;3.25;1.52;;;;;;;;;;5061755;28;20029;-59
2022/08/13 06:56:03;;;;;;;6.20;2.80;;;;;;;;;;5062933;28;20471;-59
2022/08/13 06:58:30;;;;;;;4.45;1.58;;;;;;;;;;5060493;28;20066;-59
2022/08/13 07:00:58;;;;;;;3.30;1.80;;;;;;;;;;5064163;28;20252;-60
2022/08/13 07:03:29;;;;;;;5.82;2.50;;;;;;;;;;5065911;28;20058;-59
2022/08/13 07:05:59;;;;;;;4.15;1.55;;;;;;;;;;5064760;28;20051;-60
2022/08/13 07:08:26;;;;;;;6.75;1.67;;;;;;;;;;5065326;28;20064;-60
2022/08/13 07:13:43;;;;;;;4.53;2.08;;;;;;;;;;5066737;28;20086;-60
2022/08/13 07:16:10;;;;;;;5.13;1.77;;;;;;;;;;5062930;28;20662;-61
2022/08/13 07:18:36;;;;;;;2.22;1.20;;;;;;;;;;5062824;28;20467;-59
2022/08/13 07:21:07;;;;;;;4.03;1.50;;;;;;;;;;5064048;28;20129;-61
2022/08/13 07:23:32;;;;;;;8.85;3.15;;;;;;;;;;5064333;28;20033;-59
2022/08/13 07:26:00;;;;;;;6.57;1.60;;;;;;;;;;5063505;28;20025;-59
2022/08/13 07:28:30;;;;;;;2.08;1.27;;;;;;;;;;5048544;28;20171;-59
2022/08/13 07:30:56;;;;;;;3.50;1.27;;;;;;;;;;5045016;28;20037;-59
2022/08/13 07:33:22;;;;;;;4.03;1.80;;;;;;;;;;5045725;28;20044;-58
2022/08/13 07:35:47;;;;;;;2.90;1.45;;;;;;;;;;5045004;28;20052;-59
2022/08/13 07:38:13;;;;;;;2.55;1.10;;;;;;;;;;5042131;28;20120;-59
2022/08/13 07:40:41;;;;;;;6.35;1.73;;;;;;;;;;5042801;28;20091;-59
2022/08/13 07:43:07;;;;;;;2.83;1.15;;;;;;;;;;5055748;28;20070;-60
2022/08/13 07:45:32;;;;;;;3.08;1.35;;;;;;;;;;5066241;28;20041;-59
2022/08/13 07:47:59;;;;;;;2.55;1.30;;;;;;;;;;5063739;28;20059;-60
2022/08/13 07:50:25;;;;;;;2.10;0.90;;;;;;;;;;5066633;28;20127;-60
2022/08/13 07:52:58;;;;;;;3.67;0.85;;;;;;;;;;5064350;28;20151;-60
2022/08/13 07:55:25;;;;;;;3.75;0.93;;;;;;;;;;5066554;28;20052;-60
2022/08/13 07:57:52;;;;;;;6.53;1.08;;;;;;;;;;5063913;28;20058;-60
2022/08/13 08:00:29;;;;;;;1.13;0.80;;;;;;;;;;5065862;28;20371;-59
2022/08/13 08:03:02;;;;;;;0.80;0.77;;;;;;;;;;5064644;28;20055;-59
2022/08/13 08:05:31;;;;;;;1.80;1.00;;;;;;;;;;5062930;28;20033;-59
2022/08/13 08:07:58;;;;;;;5.43;1.20;;;;;;;;;;5061892;28;20033;-60
2022/08/13 08:10:24;;;;;;;4.38;1.10;;;;;;;;;;5062695;28;20051;-60
2022/08/13 08:12:50;;;;;;;4.28;1.00;;;;;;;;;;5061948;28;20055;-60
2022/08/13 08:15:15;;;;;;;2.70;0.95;;;;;;;;;;5061719;28;20044;-60
2022/08/13 08:17:42;;;;;;;1.60;1.20;;;;;;;;;;5063441;28;20037;-60
2022/08/13 08:20:09;;;;;;;2.88;1.27;;;;;;;;;;5061918;28;20029;-60
2022/08/13 08:22:34;;;;;;;2.60;1.27;;;;;;;;;;5061363;28;20071;-60
2022/08/13 08:25:00;;;;;;;3.22;1.02;;;;;;;;;;5061814;28;20495;-60
2022/08/13 08:27:25;;;;;;;3.20;1.00;;;;;;;;;;5063700;28;20438;-61
2022/08/13 08:29:52;;;;;;;1.52;0.93;;;;;;;;;;5061438;28;20044;-60
2022/08/13 08:32:19;;;;;;;4.50;1.08;;;;;;;;;;5060800;28;20055;-59
2022/08/13 08:34:46;;;;;;;1.40;0.90;;;;;;;;;;5062122;28;20047;-60
2022/08/13 08:42:55;;;;;;;3.20;0.90;;;;;;;;;;5060046;28;20056;-59
2022/08/13 08:45:22;;;;;;;3.38;1.10;;;;;;;;;;5060388;28;20044;-61
2022/08/13 08:47:52;;;;;;;6.03;0.90;;;;;;;;;;5059817;28;20052;-59
2022/08/13 08:50:19;;;;;;;4.18;1.10;;;;;;;;;;5046088;28;20037;-60
2022/08/13 08:55:35;;;;;;;1.92;0.90;;;;;;;;;;5045712;28;20068;-60
2022/08/13 08:58:03;;;;;;;6.18;1.10;;;;;;;;;;5055026;28;20475;-60
2022/08/13 09:00:28;;;;;;;2.95;1.02;;;;;;;;;;5062826;28;20049;-60
2022/08/13 09:02:56;;;;;;;1.70;0.90;;;;;;;;;;5065349;28;20040;-60
2022/08/13 09:05:25;;;;;;;3.83;1.05;;;;;;;;;;5064628;28;20045;-60
2022/08/13 09:07:52;;;;;;;1.85;0.82;;;;;;;;;;5061299;28;20080;-59
2022/08/13 09:10:20;;;;;;;4.50;1.20;;;;;;;;;;5062601;28;20049;-59
2022/08/13 09:12:47;;;;;;;2.38;1.20;;;;;;;;;;5064003;28;20051;-59
2022/08/13 09:15:17;;;;;;;4.63;1.20;;;;;;;;;;5058541;28;20053;-59
2022/08/13 09:17:43;;;;;;;3.78;0.93;;;;;;;;;;5043230;28;20044;-60
2022/08/13 09:20:21;;;;;;;4.18;1.08;;;;;;;;;;5047497;28;20063;-61
2022/08/13 09:23:00;;;;;;;2.10;0.93;;;;;;;;;;5045474;28;20053;-60
2022/08/13 09:25:26;;;;;;;1.20;1.00;;;;;;;;;;5046159;28;20059;-61
2022/08/13 09:27:53;;;;;;;2.72;1.25;;;;;;;;;;5045864;28;20052;-61
2022/08/13 09:30:19;;;;;;;2.70;1.10;;;;;;;;;;5043568;28;20128;-61
2022/08/13 09:32:48;;;;;;;2.65;0.98;;;;;;;;;;5042643;28;20044;-61
2022/08/13 09:35:14;;;;;;;1.17;1.02;;;;;;;;;;5041891;28;20150;-61
2022/08/13 09:37:40;;;;;;;3.70;1.27;;;;;;;;;;5059898;28;20033;-61
2022/08/13 09:40:08;;;;;;;1.83;1.08;;;;;;;;;;5061164;28;20051;-61
2022/08/13 09:42:41;;;;;;;4.15;1.00;;;;;;;;;;5087239;28;21210;-60
2022/08/13 09:45:08;;;;;;;1.10;1.10;;;;;;;;;;5060660;28;20635;-61
2022/08/13 09:47:33;;;;;;;3.47;1.10;;;;;;;;;;5059400;28;20029;-60
2022/08/13 09:49:59;;;;;;;1.05;0.90;;;;;;;;;;5042127;28;20037;-60
2022/08/13 09:52:25;;;;;;;1.10;1.00;;;;;;;;;;5047719;28;20419;-60
2022/08/13 09:54:50;;;;;;;1.20;1.10;;;;;;;;;;5053481;28;20055;-60
2022/08/13 09:57:20;;;;;;;1.65;1.00;;;;;;;;;;5055875;28;20048;-60
2022/08/13 09:59:49;;;;;;;2.80;1.33;;;;;;;;;;5044936;28;20063;-65
2022/08/13 10:02:15;;;;;;;2.35;0.90;;;;;;;;;;5041209;28;20032;-60
2022/08/13 10:04:42;;;;;;;9.48;1.23;;;;;;;;;;5040765;28;20044;-59
2022/08/13 10:07:08;;;;;;;1.70;1.23;;;;;;;;;;5038400;28;20052;-60
2022/08/13 10:09:36;;;;;;;2.35;1.05;;;;;;;;;;5048933;28;20052;-60
2022/08/13 10:12:02;;;;;;;10.55;1.30;;;;;;;;;;5060197;28;20133;-60
2022/08/13 10:14:28;;;;;;;2.17;0.85;;;;;;;;;;5061514;28;20490;-60
2022/08/13 10:16:53;;;;;;;2.92;1.02;;;;;;;;;;5061068;28;20036;-60
2022/08/13 10:19:19;;;;;;;3.83;1.05;;;;;;;;;;5062604;28;20081;-60
2022/08/13 10:21:44;;;;;;;2.47;1.20;;;;;;;;;;5061280;28;20407;-60
2022/08/13 10:24:10;;;;;;;2.25;0.95;;;;;;;;;;5061807;28;20052;-60
2022/08/13 10:26:40;;;;;;;1.42;1.10;;;;;;;;;;5063017;28;20035;-61
2022/08/13 10:29:09;;;;;;;3.53;1.00;;;;;;;;;;5063015;28;20023;-60
2022/08/13 10:31:35;;;;;;;1.80;1.10;;;;;;;;;;5062798;28;20174;-60
2022/08/13 10:34:03;;;;;;;3.22;1.10;;;;;;;;;;5063084;28;20151;-60
2022/08/13 10:36:30;;;;;;;4.53;1.13;;;;;;;;;;5062570;28;20075;-60
2022/08/13 10:38:56;;;;;;;2.50;0.90;;;;;;;;;;5062656;28;20076;-60
2022/08/13 10:41:24;;;;;;;3.03;1.00;;;;;;;;;;5061318;28;20052;-60
2022/08/13 10:43:50;;;;;;;2.33;1.20;;;;;;;;;;5061977;28;20407;-59
2022/08/13 10:46:17;;;;;;;3.22;1.10;;;;;;;;;;5062120;28;20128;-60
2022/08/13 10:48:44;;;;;;;3.00;1.20;;;;;;;;;;5062708;28;20140;-60
2022/08/13 10:51:11;;;;;;;3.20;1.10;;;;;;;;;;5061264;28;20513;-60
2022/08/13 10:53:55;;;;;;;1.13;0.90;;;;;;;;;;5060980;28;20519;-60
2022/08/13 10:56:21;;;;;;;1.20;1.10;;;;;;;;;;5061240;28;20051;-60
2022/08/13 10:58:47;;;;;;;1.23;1.10;;;;;;;;;;5061608;28;20439;-60
2022/08/13 11:01:13;;;;;;;2.45;1.30;;;;;;;;;;5061765;28;20124;-60
2022/08/13 11:03:38;;;;;;;1.20;1.10;;;;;;;;;;5061562;28;20601;-60
2022/08/13 11:06:06;;;;;;;2.65;1.10;;;;;;;;;;5062908;28;20577;-60
2022/08/13 11:08:38;;;;;;;1.33;1.05;;;;;;;;;;5060624;28;20039;-60
2022/08/13 11:11:09;;;;;;;1.20;1.10;;;;;;;;;;5058144;28;20037;-60
2022/08/13 11:13:37;;;;;;;1.30;1.15;;;;;;;;;;5060510;28;20062;-59
2022/08/13 11:16:56;;;;;;;2.42;1.00;;;;;;;;;;5057874;28;20056;-64
2022/08/13 11:18:54;;;;;;;2.17;1.20;;;;;;;;;;5059031;28;20044;-64
2022/08/13 11:21:20;;;;;;;3.58;1.20;;;;;;;;;;5061546;28;20049;-64
2022/08/13 11:23:45;;;;;;;3.15;1.60;;;;;;;;;;5058786;28;20114;-64
2022/08/13 11:26:11;;;;;;;1.13;1.02;;;;;;;;;;5064645;28;20024;-66
2022/08/13 11:28:36;;;;;;;2.58;1.40;;;;;;;;;;5060862;28;20056;-67
2022/08/13 11:31:01;;;;;;;1.05;0.85;;;;;;;;;;5059549;28;20060;-62
2022/08/13 11:33:27;;;;;;;1.98;1.00;;;;;;;;;;5062071;28;20059;-62
2022/08/13 11:35:53;;;;;;;1.85;1.13;;;;;;;;;;5059527;28;20047;-62
2022/08/13 11:38:20;;;;;;;2.45;1.20;;;;;;;;;;5062697;28;20384;-62
2022/08/13 11:40:55;;;;;;;6.15;1.35;;;;;;;;;;5059939;28;20143;-62
2022/08/13 11:43:26;;;;;;;2.30;1.00;;;;;;;;;;5063986;28;20043;-63
2022/08/13 11:45:51;;;;;;;1.42;0.98;;;;;;;;;;5063017;28;20045;-62
2022/08/13 11:48:19;;;;;;;1.27;1.17;;;;;;;;;;5065192;28;20085;-62
2022/08/13 11:50:44;;;;;;;3.08;1.20;;;;;;;;;;5062429;28;20076;-63
2022/08/13 11:53:10;;;;;;;1.85;0.98;;;;;;;;;;5065204;28;20060;-62
2022/08/13 11:55:36;;;;;;;2.35;1.20;;;;;;;;;;5061961;28;20059;-63
2022/08/13 11:58:04;;;;;;;2.15;1.48;;;;;;;;;;5061757;28;20052;-63
2022/08/13 12:00:30;;;;;;;3.17;1.00;;;;;;;;;;5064229;28;20048;-63
2022/08/13 12:02:55;;;;;;;1.65;1.00;;;;;;;;;;5060953;28;20199;-62
2022/08/13 12:05:21;;;;;;;1.40;1.00;;;;;;;;;;5060956;28;20056;-62
2022/08/13 12:07:46;;;;;;;1.60;1.00;;;;;;;;;;5044152;28;20407;-62
2022/08/13 12:10:12;;;;;;;1.00;1.00;;;;;;;;;;5041790;28;20048;-62
2022/08/13 12:12:38;;;;;;;1.20;1.00;;;;;;;;;;5038603;28;20029;-61
2022/08/13 12:15:04;;;;;;;2.10;1.15;;;;;;;;;;5037830;28;20087;-63
2022/08/13 12:17:30;;;;;;;3.13;1.02;;;;;;;;;;5039490;28;20487;-62
2022/08/13 12:19:55;;;;;;;0.90;0.90;;;;;;;;;;5038187;28;20087;-63
2022/08/13 12:22:21;;;;;;;1.38;1.00;;;;;;;;;;5036830;28;20175;-61
2022/08/13 12:24:47;;;;;;;1.17;1.00;;;;;;;;;;5036802;28;20140;-62
2022/08/13 12:27:13;;;;;;;3.97;1.20;;;;;;;;;;5037587;28;20049;-62
2022/08/13 12:29:38;;;;;;;1.45;0.90;;;;;;;;;;5037520;28;20430;-62
2022/08/13 12:32:04;;;;;;;1.05;0.90;;;;;;;;;;5035326;28;20032;-63
2022/08/13 12:34:29;;;;;;;1.92;0.82;;;;;;;;;;5057987;28;20097;-63
2022/08/13 12:36:54;;;;;;;2.03;0.95;;;;;;;;;;5058716;28;20048;-62
2022/08/13 12:39:20;;;;;;;3.05;1.20;;;;;;;;;;5061967;28;20208;-63
2022/08/13 12:41:45;;;;;;;2.28;1.20;;;;;;;;;;5061034;28;20129;-62
2022/08/13 12:44:11;;;;;;;3.22;1.15;;;;;;;;;;5063127;28;20477;-62
2022/08/13 12:46:36;;;;;;;2.28;1.10;;;;;;;;;;5063599;28;20113;-61
2022/08/13 12:49:03;;;;;;;1.17;1.05;;;;;;;;;;5061534;28;20572;-63
2022/08/13 12:51:28;;;;;;;1.20;1.10;;;;;;;;;;5061521;28;20040;-62
2022/08/13 12:53:54;;;;;;;1.73;1.10;;;;;;;;;;5060420;28;20613;-62
2022/08/13 12:56:19;;;;;;;2.22;1.30;;;;;;;;;;5062334;28;20110;-62
2022/08/13 12:58:45;;;;;;;4.07;1.30;;;;;;;;;;5061889;28;20044;-62
2022/08/13 13:01:10;;;;;;;1.42;1.15;;;;;;;;;;5060066;28;20502;-62
2022/08/13 13:03:36;;;;;;;2.47;0.90;;;;;;;;;;5062322;28;20384;-62
2022/08/13 13:06:01;;;;;;;4.38;1.20;;;;;;;;;;5060510;28;20115;-62
2022/08/13 13:08:32;;;;;;;1.48;1.10;;;;;;;;;;5062277;28;20045;-60
2022/08/13 13:11:03;;;;;;;1.38;1.10;;;;;;;;;;5058698;28;20044;-62
2022/08/13 13:13:29;;;;;;;1.95;1.10;;;;;;;;;;5061094;28;20045;-62
2022/08/13 13:15:56;;;;;;;1.92;1.20;;;;;;;;;;5059235;28;20048;-62
2022/08/13 13:18:25;;;;;;;1.10;1.10;;;;;;;;;;5062250;28;20067;-63
2022/08/13 13:20:51;;;;;;;2.28;1.10;;;;;;;;;;5059936;28;20052;-63
2022/08/13 13:23:19;;;;;;;2.08;1.10;;;;;;;;;;5061497;28;20313;-62
2022/08/13 13:25:46;;;;;;;1.60;1.10;;;;;;;;;;5061563;28;20044;-62
2022/08/13 13:28:15;;;;;;;3.10;1.30;;;;;;;;;;5059332;28;20126;-63
2022/08/13 13:30:41;;;;;;;2.00;0.93;;;;;;;;;;5060919;28;20037;-63
2022/08/13 13:33:07;;;;;;;3.33;1.20;;;;;;;;;;5052428;28;20062;-63
2022/08/13 13:35:34;;;;;;;1.55;1.05;;;;;;;;;;5054316;28;20105;-62
2022/08/13 13:38:01;;;;;;;4.68;0.90;;;;;;;;;;5057536;28;20766;-62
2022/08/13 13:40:27;;;;;;;3.42;1.20;;;;;;;;;;5059351;28;20132;-62
2022/08/13 13:42:53;;;;;;;3.20;1.10;;;;;;;;;;5059128;28;20146;-62
2022/08/13 13:45:18;;;;;;;1.05;1.00;;;;;;;;;;5059035;28;20049;-62
2022/08/13 13:47:44;;;;;;;1.08;0.98;;;;;;;;;;5059372;28;20440;-62
2022/08/13 13:50:09;;;;;;;2.78;1.10;;;;;;;;;;5058931;28;20051;-62
2022/08/13 13:52:35;;;;;;;1.17;1.02;;;;;;;;;;5057951;28;20044;-62
2022/08/13 13:55:01;;;;;;;3.80;0.90;;;;;;;;;;5061170;28;20053;-62
2022/08/13 13:57:27;;;;;;;1.30;1.20;;;;;;;;;;5063545;28;20066;-62
2022/08/13 13:59:54;;;;;;;3.42;1.20;;;;;;;;;;5061784;28;20048;-62
2022/08/13 14:02:19;;;;;;;1.63;1.00;;;;;;;;;;5060379;28;20202;-62
2022/08/13 14:04:45;;;;;;;1.33;1.05;;;;;;;;;;5063169;28;20177;-63
2022/08/13 14:07:11;;;;;;;1.95;0.98;;;;;;;;;;5059869;28;20171;-63
2022/08/13 14:09:38;;;;;;;1.63;1.10;;;;;;;;;;5062142;28;20085;-62
2022/08/13 14:12:05;;;;;;;3.08;1.20;;;;;;;;;;5058152;28;20080;-62
2022/08/13 14:14:31;;;;;;;1.00;1.00;;;;;;;;;;5061602;28;20076;-63
2022/08/13 14:16:58;;;;;;;1.30;1.20;;;;;;;;;;5058522;28;20451;-62
2022/08/13 14:19:24;;;;;;;3.08;1.20;;;;;;;;;;5063463;28;20507;-63
2022/08/13 14:21:51;;;;;;;1.83;1.00;;;;;;;;;;5060268;28;20091;-63
2022/08/13 14:24:18;;;;;;;1.95;1.13;;;;;;;;;;5046111;28;20071;-63
2022/08/13 14:26:44;;;;;;;4.93;1.17;;;;;;;;;;5061201;28;20056;-63
2022/08/13 14:29:10;;;;;;;2.72;1.15;;;;;;;;;;5055123;28;20148;-64
2022/08/13 14:31:36;;;;;;;3.08;1.40;;;;;;;;;;5060263;28;20051;-61
2022/08/13 14:34:01;;;;;;;1.70;1.20;;;;;;;;;;5060122;28;20029;-63
2022/08/13 14:36:28;;;;;;;1.45;1.20;;;;;;;;;;5060705;28;20048;-63
2022/08/13 14:38:54;;;;;;;2.33;1.33;;;;;;;;;;5051971;28;20094;-63
2022/08/13 14:41:19;;;;;;;2.08;1.00;;;;;;;;;;5060281;28;20425;-61
2022/08/13 14:43:46;;;;;;;2.50;1.10;;;;;;;;;;5059767;28;20056;-63
2022/08/13 14:46:14;;;;;;;1.17;1.08;;;;;;;;;;5060788;28;20598;-61
2022/08/13 14:48:40;;;;;;;2.10;1.05;;;;;;;;;;5056933;28;20546;-61
2022/08/13 14:51:07;;;;;;;1.33;1.17;;;;;;;;;;5057017;28;20133;-63
2022/08/13 14:53:32;;;;;;;1.33;1.10;;;;;;;;;;5060202;28;20083;-63
2022/08/13 14:55:58;;;;;;;2.85;0.95;;;;;;;;;;5059472;28;20072;-63
2022/08/13 14:58:30;;;;;;;4.88;1.17;;;;;;;;;;5058256;28;20070;-63
2022/08/13 15:00:57;;;;;;;1.98;0.95;;;;;;;;;;5060335;28;20032;-61
2022/08/13 15:03:25;;;;;;;1.52;1.10;;;;;;;;;;5063154;28;20036;-63
2022/08/13 15:05:53;;;;;;;4.28;1.00;;;;;;;;;;5060692;28;20044;-63